Time;durP1;ratioP1;P1;durP2;ratioP2;P2;SDS_P1;SDS_P2;PMS_P1;PMS_P2;Temp;Humidity;BMP_temperature;BMP_pressure;BME280_temperature;BME280_humidity;BME280_pressure;Samples;Min_cycle;Max_cycle;Signal;HPM_P1;HPM_P2
2023/05/22 00:02:09;;;;;;;11.57;10.48;;;18.10;99.90;;;-141.84;67.59;21004.97;5050020;28;20301;-56
2023/05/22 00:04:38;;;;;;;10.82;9.82;;;18.00;99.90;;;-141.84;67.96;20968.38;5050571;28;20583;-57
2023/05/22 00:07:08;;;;;;;10.77;9.77;;;18.00;99.90;;;-141.84;67.81;20990.75;5050639;28;20197;-56
2023/05/22 00:09:36;;;;;;;12.77;10.27;;;18.00;99.90;;;-141.84;68.06;20937.91;5038229;28;20210;-57
2023/05/22 00:12:05;;;;;;;10.98;9.98;;;18.00;99.90;;;-141.84;68.25;20946.03;5030393;28;20361;-57
2023/05/22 00:14:33;;;;;;;11.40;10.20;;;17.90;99.90;;;-141.84;68.33;20919.59;5030423;28;20627;-55
2023/05/22 00:17:02;;;;;;;11.50;10.40;;;17.90;99.90;;;-141.84;68.31;20929.75;5030228;28;20240;-56
2023/05/22 00:19:31;;;;;;;11.90;10.80;;;17.90;99.90;;;-141.84;68.09;20964.31;5030612;28;20676;-58
2023/05/22 00:22:00;;;;;;;11.52;10.40;;;17.90;99.90;;;-141.84;68.80;20911.47;5030060;28;20202;-56
2023/05/22 00:24:30;;;;;;;11.70;10.60;;;17.80;99.90;;;-141.84;68.13;20941.97;5030474;28;20276;-55
2023/05/22 00:26:58;;;;;;;11.60;10.40;;;17.80;99.90;;;-141.84;68.67;20903.34;5032005;28;20280;-57
2023/05/22 00:29:27;;;;;;;12.13;10.88;;;17.70;99.90;;;-141.84;68.89;20876.91;5050346;28;20208;-57
2023/05/22 00:31:55;;;;;;;11.00;10.02;;;17.70;99.90;;;-141.84;69.62;20901.31;5032771;28;20305;-57
2023/05/22 00:34:23;;;;;;;11.38;10.20;;;17.60;99.90;;;-141.84;69.64;20891.13;5030435;28;20229;-55
2023/05/22 00:36:51;;;;;;;11.45;10.23;;;17.60;99.90;;;-141.84;69.60;20893.16;5030144;28;20204;-56
2023/05/22 00:39:20;;;;;;;11.70;10.55;;;17.50;99.90;;;-141.84;69.71;20836.25;5029939;28;20665;-56
2023/05/22 00:41:49;;;;;;;11.88;10.77;;;17.50;99.90;;;-141.84;69.04;20883.00;5030705;28;20202;-55
2023/05/22 00:44:17;;;;;;;12.10;10.20;;;17.60;99.90;;;-141.84;69.38;20907.41;5034034;28;20300;-56
2023/05/22 00:46:45;;;;;;;11.75;10.63;;;17.50;99.90;;;-141.84;69.30;20854.53;5034390;28;20228;-53
2023/05/22 00:49:14;;;;;;;11.25;10.02;;;17.50;99.90;;;-141.84;70.04;20848.44;5034266;28;20229;-57
2023/05/22 00:51:42;;;;;;;10.85;9.95;;;17.40;99.90;;;-141.84;69.98;20803.72;5033749;28;20650;-56
2023/05/22 00:54:12;;;;;;;11.60;10.55;;;17.30;99.90;;;-141.84;69.76;20838.28;5033989;28;20256;-56
2023/05/22 00:56:42;;;;;;;10.82;9.82;;;17.30;99.90;;;-141.84;69.27;20846.41;5033657;28;20662;-56
2023/05/22 00:59:12;;;;;;;11.57;10.32;;;17.30;99.90;;;-141.84;68.68;20874.88;5053486;28;20217;-56
2023/05/22 01:01:41;;;;;;;11.40;10.20;;;17.40;99.90;;;-141.84;68.59;20870.81;5053462;28;20730;-55
2023/05/22 01:04:13;;;;;;;11.65;10.55;;;17.40;99.90;;;-141.84;68.37;20846.41;5053665;28;20217;-56
2023/05/22 01:06:41;;;;;;;10.82;9.85;;;17.40;99.90;;;-141.84;68.93;20846.41;5053519;28;20201;-55
2023/05/22 01:09:09;;;;;;;11.07;9.98;;;17.40;99.90;;;-141.84;69.23;20828.13;5045240;28;20298;-55
2023/05/22 01:11:47;;;;;;;11.88;10.57;;;17.30;99.90;;;-141.84;69.00;20807.78;5033673;28;20314;-55
2023/05/22 01:14:29;;;;;;;11.00;10.00;;;17.30;99.90;;;-141.84;68.97;20856.56;5033166;28;20639;-55
2023/05/22 01:17:10;;;;;;;11.18;10.07;;;17.20;99.90;;;-141.84;69.37;20840.31;5033951;28;20189;-59
2023/05/22 01:20:05;;;;;;;11.18;10.15;;;17.20;99.90;;;-141.84;69.61;20779.31;5033199;28;20190;-55
2023/05/22 01:23:29;;;;;;;10.85;9.95;;;17.10;99.90;;;-141.84;69.02;20752.91;5033187;28;20643;-56
2023/05/22 01:26:20;;;;;;;11.73;10.25;;;17.10;99.90;;;-141.84;69.01;20793.56;5033475;28;20226;-55
2023/05/22 01:29:30;;;;;;;13.00;10.07;;;17.20;99.90;;;-141.84;68.99;20797.63;5044404;28;20288;-54
2023/05/22 01:32:02;;;;;;;10.82;9.82;;;17.10;99.90;;;-141.84;69.48;20785.44;5003750;28;20329;-57
2023/05/22 01:34:35;;;;;;;12.35;11.18;;;17.00;99.90;;;-141.84;68.93;20783.41;5033281;28;20183;-55
2023/05/22 01:37:05;;;;;;;10.90;9.90;;;17.00;99.90;;;-141.84;68.71;20797.63;5032985;28;20631;-57
2023/05/22 01:39:35;;;;;;;11.30;10.10;;;17.10;99.90;;;-141.84;68.97;20805.75;5032596;28;20186;-57
2023/05/22 01:42:05;;;;;;;12.90;10.68;;;17.10;99.90;;;-141.84;68.26;20838.28;5032985;28;20751;-57
2023/05/22 01:44:33;;;;;;;11.88;10.68;;;17.10;99.90;;;-141.84;68.86;20769.16;5032650;28;20317;-54
2023/05/22 01:47:04;;;;;;;11.15;9.75;;;17.10;99.90;;;-141.84;69.20;20765.09;5032896;28;20387;-56
2023/05/22 01:49:34;;;;;;;11.50;10.40;;;17.00;99.90;;;-141.84;69.65;20763.06;5032721;28;20186;-57
2023/05/22 01:52:12;;;;;;;12.60;11.00;;;16.90;99.90;;;-141.84;68.82;20767.13;5032976;28;20297;-56
2023/05/22 01:54:51;;;;;;;11.73;10.63;;;16.90;99.90;;;-141.84;68.31;20765.09;5032160;28;20273;-56
2023/05/22 01:57:28;;;;;;;10.57;9.50;;;16.90;99.90;;;-141.84;69.29;20752.91;5037157;28;20265;-54
2023/05/22 02:00:08;;;;;;;11.38;10.38;;;16.90;99.90;;;-141.84;69.42;20736.63;5052806;28;20213;-55
2023/05/22 02:02:42;;;;;;;11.02;10.05;;;16.90;99.90;;;-141.84;69.87;20744.78;5052695;28;20280;-54
2023/05/22 02:05:12;;;;;;;10.85;9.90;;;16.80;99.90;;;-141.84;69.52;20724.44;5052612;28;20235;-55
2023/05/22 02:07:43;;;;;;;11.35;10.25;;;16.80;99.90;;;-141.84;69.31;20746.81;5052786;28;20189;-55
2023/05/22 02:10:13;;;;;;;11.35;10.23;;;16.70;99.90;;;-141.84;69.99;20736.63;5035641;28;20190;-56
2023/05/22 02:12:42;;;;;;;12.05;9.68;;;16.70;99.90;;;-141.84;70.12;20726.47;5032724;28;20260;-56
2023/05/22 02:15:11;;;;;;;11.98;10.50;;;16.60;99.90;;;-141.84;69.22;20752.91;5032644;28;20289;-53
2023/05/22 02:17:41;;;;;;;11.30;10.20;;;16.70;99.90;;;-141.84;69.70;20718.34;5032464;28;20257;-57
2023/05/22 02:20:13;;;;;;;10.68;9.70;;;16.70;99.90;;;-141.84;70.30;20677.69;5032394;28;20701;-56
2023/05/22 02:22:43;;;;;;;11.05;10.07;;;16.60;99.90;;;-141.84;70.01;20734.59;5032112;28;20204;-55
2023/05/22 02:25:13;;;;;;;10.65;9.75;;;16.60;99.90;;;-141.84;69.59;20708.19;5031671;28;20305;-56
2023/05/22 02:27:42;;;;;;;10.45;9.48;;;16.50;99.90;;;-141.84;68.72;20738.66;5039719;28;20558;-55
2023/05/22 02:30:12;;;;;;;11.00;10.00;;;16.60;99.90;;;-141.84;69.41;20716.31;5049591;28;20287;-56
2023/05/22 02:32:42;;;;;;;10.73;9.73;;;16.60;99.90;;;-141.84;69.61;20691.91;5031801;28;20233;-54
2023/05/22 02:35:10;;;;;;;10.32;9.40;;;16.50;99.90;;;-141.84;70.08;20695.97;5032105;28;20187;-57
2023/05/22 02:37:41;;;;;;;11.43;10.23;;;16.50;99.90;;;-141.84;69.75;20722.41;5032134;28;20275;-55
2023/05/22 02:40:10;;;;;;;12.20;9.98;;;16.40;99.90;;;-141.84;69.87;20689.88;5031607;28;20237;-56
2023/05/22 02:42:38;;;;;;;11.25;10.13;;;16.40;99.90;;;-141.84;69.50;20669.56;5031753;28;20236;-59
2023/05/22 02:45:08;;;;;;;10.55;9.48;;;16.40;99.90;;;-141.84;69.48;20706.16;5031788;28;20236;-55
2023/05/22 02:47:37;;;;;;;10.73;9.65;;;16.30;99.90;;;-141.84;69.96;20700.03;5031997;28;20237;-54
2023/05/22 02:50:07;;;;;;;10.70;9.77;;;16.30;99.90;;;-141.84;70.22;20635.00;5031883;28;20213;-58
2023/05/22 02:52:38;;;;;;;10.55;9.45;;;16.30;99.90;;;-141.84;69.96;20673.63;5031802;28;20706;-56
2023/05/22 02:55:07;;;;;;;10.43;9.40;;;16.30;99.90;;;-141.84;69.71;20661.44;5031799;28;20194;-56
2023/05/22 02:57:36;;;;;;;10.15;9.30;;;16.30;99.90;;;-141.84;69.16;20659.38;5038334;28;20719;-56
2023/05/22 03:00:05;;;;;;;11.32;10.30;;;16.20;99.90;;;-141.84;68.80;20679.72;5051121;28;20292;-56
2023/05/22 03:02:35;;;;;;;11.38;10.38;;;16.30;99.90;;;-141.84;69.85;20655.31;5051447;28;20197;-55
2023/05/22 03:05:04;;;;;;;11.00;9.95;;;16.20;99.90;;;-141.84;69.96;20602.47;5051158;28;20271;-57
2023/05/22 03:07:33;;;;;;;12.05;10.60;;;16.20;99.90;;;-141.84;69.64;20675.66;5044309;28;20205;-55
2023/05/22 03:10:01;;;;;;;10.98;9.80;;;16.10;99.90;;;-141.84;68.73;20635.00;5031316;28;20293;-55
2023/05/22 03:12:30;;;;;;;10.90;9.85;;;16.20;99.90;;;-141.84;69.09;20639.06;5031261;28;20759;-57
2023/05/22 03:14:58;;;;;;;11.45;10.30;;;16.20;99.90;;;-141.84;68.85;20628.91;5031249;28;20210;-56
2023/05/22 03:17:26;;;;;;;13.30;9.57;;;16.20;99.90;;;-141.84;68.69;20673.63;5031337;28;20296;-56
2023/05/22 03:19:54;;;;;;;10.70;9.65;;;16.20;99.90;;;-141.84;68.71;20628.91;5031290;28;20206;-57
2023/05/22 03:22:22;;;;;;;10.35;9.35;;;16.20;99.90;;;-141.84;67.84;20669.56;5031321;28;20248;-55
2023/05/22 03:24:52;;;;;;;10.32;9.30;;;16.20;99.90;;;-141.84;68.00;20639.06;5031149;28;20301;-58
2023/05/22 03:27:20;;;;;;;10.48;9.55;;;16.30;99.90;;;-141.84;67.68;20655.31;5035622;28;20292;-57
2023/05/22 03:29:48;;;;;;;11.10;10.05;;;16.20;99.90;;;-141.84;66.89;20716.31;5050668;28;20205;-55
2023/05/22 03:32:16;;;;;;;9.65;8.75;;;16.30;99.90;;;-141.84;67.37;20667.53;5031252;28;20222;-56
2023/05/22 03:34:45;;;;;;;10.07;9.18;;;16.30;99.90;;;-141.84;67.10;20693.94;5030812;28;20639;-55
2023/05/22 03:37:13;;;;;;;9.98;9.07;;;16.20;99.90;;;-141.84;67.29;20681.75;5030929;28;20288;-55
2023/05/22 03:39:41;;;;;;;10.20;9.30;;;16.30;99.90;;;-141.84;66.07;20700.03;5030621;28;20256;-58
2023/05/22 03:42:12;;;;;;;10.05;9.15;;;16.30;99.90;;;-141.84;66.14;20698.00;5030661;28;20666;-55
2023/05/22 03:44:40;;;;;;;10.65;9.43;;;16.40;99.90;;;-141.84;65.36;20728.50;5030468;28;20650;-56
2023/05/22 03:47:08;;;;;;;9.57;8.77;;;16.40;99.90;;;-141.84;65.81;20728.50;5030602;28;20225;-55
2023/05/22 03:49:36;;;;;;;12.25;9.73;;;16.40;99.90;;;-141.84;65.18;20746.81;5031117;28;20305;-55
2023/05/22 03:52:05;;;;;;;11.07;9.80;;;16.50;99.90;;;-141.84;65.70;20700.03;5030603;28;20749;-56
2023/05/22 03:54:33;;;;;;;9.73;8.75;;;16.50;99.90;;;-141.84;65.88;20752.91;5030563;28;20732;-57
2023/05/22 03:57:02;;;;;;;9.55;8.65;;;16.50;99.90;;;-141.84;65.61;20720.38;5032559;28;20258;-55
2023/05/22 03:59:31;;;;;;;9.02;8.23;;;16.50;99.90;;;-141.84;65.98;20700.03;5050767;28;20288;-56
2023/05/22 04:02:00;;;;;;;10.23;9.27;;;16.50;99.90;;;-141.84;65.54;20700.03;5050328;28;20248;-56
2023/05/22 04:04:28;;;;;;;9.88;8.80;;;16.50;99.90;;;-141.84;65.00;20712.25;5037509;28;20566;-55
2023/05/22 04:06:58;;;;;;;10.40;9.40;;;16.50;99.90;;;-141.84;64.73;20750.88;5030682;28;20313;-55
2023/05/22 04:09:27;;;;;;;9.38;8.43;;;16.60;99.90;;;-141.84;64.96;20744.78;5030757;28;20248;-55
2023/05/22 04:11:55;;;;;;;9.60;8.55;;;16.70;99.90;;;-141.84;65.02;20742.75;5030909;28;20240;-57
2023/05/22 04:14:23;;;;;;;9.90;8.70;;;16.70;99.90;;;-141.84;64.34;20779.31;5030241;28;20600;-54
2023/05/22 04:16:53;;;;;;;9.88;8.88;;;16.80;99.90;;;-141.84;64.14;20789.50;5030029;28;20238;-56
2023/05/22 04:19:22;;;;;;;10.20;9.02;;;16.80;99.90;;;-141.84;63.50;20820.00;5030738;28;20233;-56
2023/05/22 04:21:50;;;;;;;9.13;8.20;;;16.90;99.90;;;-141.84;63.66;20793.56;5030404;28;20202;-57
2023/05/22 04:24:18;;;;;;;10.15;9.10;;;16.90;99.90;;;-141.84;63.28;20868.78;5030669;28;20202;-55
2023/05/22 04:26:46;;;;;;;9.40;8.60;;;17.00;99.90;;;-141.84;63.01;20838.28;5030436;28;20218;-54
2023/05/22 04:29:15;;;;;;;9.20;8.40;;;17.00;99.90;;;-141.84;62.72;20889.09;5029964;28;20229;-56
2023/05/22 04:31:43;;;;;;;9.27;8.48;;;17.00;99.90;;;-141.84;63.03;20822.03;5029991;28;20255;-58
2023/05/22 04:34:15;;;;;;;9.27;8.27;;;17.10;99.90;;;-141.84;62.72;20860.66;5030359;28;20186;-57
2023/05/22 04:36:45;;;;;;;9.48;8.57;;;17.10;99.90;;;-141.84;63.05;20826.09;5029842;28;20737;-56
2023/05/22 04:39:14;;;;;;;10.00;9.10;;;17.10;99.90;;;-141.84;62.50;20860.66;5030209;28;20229;-55
2023/05/22 04:41:43;;;;;;;9.27;8.27;;;17.10;99.90;;;-141.84;62.28;20899.28;5030186;28;20198;-55
2023/05/22 04:44:11;;;;;;;9.65;8.57;;;17.20;99.90;;;-141.84;62.58;20842.34;5030438;28;20724;-55
2023/05/22 04:46:39;;;;;;;10.23;8.82;;;17.20;99.90;;;-141.84;61.79;20876.91;5030724;28;20218;-55
2023/05/22 04:49:07;;;;;;;9.65;8.75;;;17.30;99.90;;;-141.84;61.31;20911.47;5030653;28;20674;-56
2023/05/22 04:51:37;;;;;;;11.10;8.85;;;17.40;99.90;;;-141.84;60.68;20950.09;5029837;28;20237;-67
2023/05/22 04:54:05;;;;;;;8.82;8.02;;;17.50;99.90;;;-141.84;60.53;20946.03;5030027;28;20687;-68
2023/05/22 04:56:33;;;;;;;9.32;8.40;;;17.60;99.90;;;-141.84;59.67;20994.81;5029801;28;20700;-68
2023/05/22 04:59:07;;;;;;;10.48;8.63;;;17.80;99.90;;;-141.84;59.16;21021.25;5048775;28;20251;-68
2023/05/22 05:01:36;;;;;;;9.60;8.65;;;17.90;99.90;;;-141.84;59.01;21055.81;5010163;28;20210;-68
2023/05/22 05:04:05;;;;;;;9.18;8.25;;;18.00;99.90;;;-141.84;58.73;21039.53;5010386;28;20238;-68
2023/05/22 05:06:34;;;;;;;9.82;8.68;;;18.00;99.90;;;-141.84;57.92;21068.00;5010086;28;20222;-67
2023/05/22 05:09:04;;;;;;;9.60;8.80;;;18.30;99.90;;;-141.84;58.35;21061.91;5017697;28;20237;-68
2023/05/22 05:11:32;;;;;;;9.10;8.30;;;18.30;99.90;;;-141.84;58.52;21088.34;5029757;28;20206;-67
2023/05/22 05:14:00;;;;;;;10.02;8.50;;;18.40;99.90;;;-141.84;57.20;21137.13;5029768;28;20205;-68
2023/05/22 05:16:28;;;;;;;9.95;8.35;;;18.50;99.90;;;-141.84;57.26;21198.13;5029649;28;20588;-69
2023/05/22 05:18:57;;;;;;;10.30;8.13;;;18.70;99.90;;;-141.84;56.34;21198.13;5030485;28;20250;-69
2023/05/22 05:21:26;;;;;;;8.73;7.93;;;18.80;99.90;;;-141.84;56.31;21224.56;5029876;28;20202;-68
2023/05/22 05:23:54;;;;;;;10.85;8.40;;;18.90;99.90;;;-141.84;55.74;21269.28;5030156;28;20285;-68
2023/05/22 05:26:25;;;;;;;9.25;8.35;;;19.10;99.90;;;-141.84;55.50;21285.53;5029828;28;20222;-67
2023/05/22 05:28:55;;;;;;;13.35;8.15;;;19.20;99.90;;;-141.84;56.21;21255.03;5028764;28;20292;-69
2023/05/22 05:31:23;;;;;;;9.18;8.25;;;19.20;99.90;;;-141.84;55.48;21259.13;5033369;28;20264;-68
2023/05/22 05:33:51;;;;;;;9.23;7.78;;;19.30;99.90;;;-141.84;55.45;21299.78;5032955;28;20241;-67
2023/05/22 05:36:20;;;;;;;12.25;8.63;;;19.40;99.90;;;-141.84;54.78;21307.91;5033394;28;20206;-67
2023/05/22 05:38:48;;;;;;;10.57;7.97;;;19.50;99.90;;;-141.84;54.88;21336.38;5032762;28;20662;-69
2023/05/22 05:41:17;;;;;;;8.27;7.53;;;19.50;99.90;;;-141.84;54.97;21350.59;5032980;28;20206;-68
2023/05/22 05:43:47;;;;;;;8.50;7.72;;;19.60;99.90;;;-141.84;55.11;21322.13;5032914;28;20202;-68
2023/05/22 05:46:15;;;;;;;9.23;8.32;;;19.60;99.90;;;-141.84;55.05;21379.06;5032989;28;20212;-68
2023/05/22 05:48:43;;;;;;;9.38;8.57;;;19.70;99.90;;;-141.84;54.66;21344.50;5032746;28;20209;-68
2023/05/22 05:51:11;;;;;;;9.35;8.07;;;19.70;99.90;;;-141.84;54.40;21427.88;5032913;28;20745;-65
2023/05/22 05:53:40;;;;;;;10.38;8.07;;;19.80;99.90;;;-141.84;54.56;21419.72;5032845;28;20199;-67
2023/05/22 05:56:09;;;;;;;9.32;8.43;;;19.90;99.90;;;-141.84;54.41;21401.44;5032982;28;20208;-68
2023/05/22 05:58:37;;;;;;;10.43;7.93;;;20.00;99.90;;;-141.84;53.98;21431.94;5032608;28;20293;-68
2023/05/22 06:01:07;;;;;;;8.95;8.15;;;20.10;99.90;;;-141.84;53.63;21476.66;5032675;28;20204;-67
2023/05/22 06:03:35;;;;;;;8.70;7.82;;;20.10;99.90;;;-141.84;53.19;21480.72;5032690;28;20296;-67
2023/05/22 06:06:04;;;;;;;9.48;8.20;;;20.30;99.90;;;-141.84;53.38;21507.16;5032795;28;20224;-69
2023/05/22 06:08:33;;;;;;;11.70;7.90;;;20.40;99.90;;;-141.84;53.22;21519.34;5025275;28;20220;-67
2023/05/22 06:11:02;;;;;;;10.38;8.50;;;20.40;99.90;;;-141.84;52.77;21533.59;5032458;28;20202;-68
2023/05/22 06:13:30;;;;;;;12.02;8.10;;;20.50;99.90;;;-141.84;52.40;21523.44;5032584;28;20238;-67
2023/05/22 06:15:58;;;;;;;10.10;7.63;;;20.60;99.90;;;-141.84;52.33;21527.50;5032402;28;20204;-67
2023/05/22 06:18:33;;;;;;;9.57;8.23;;;20.50;99.90;;;-141.84;52.83;21533.59;5032130;28;20669;-68
2023/05/22 06:21:01;;;;;;;8.98;8.18;;;20.60;99.90;;;-141.84;52.51;21570.19;5032828;28;20237;-68
2023/05/22 06:23:29;;;;;;;8.85;7.95;;;20.60;99.90;;;-141.84;52.75;21574.25;5032445;28;20212;-68
2023/05/22 06:25:57;;;;;;;8.82;8.02;;;20.70;99.90;;;-141.84;51.97;21647.47;5032580;28;20206;-68
2023/05/22 06:28:25;;;;;;;8.68;7.88;;;21.00;99.90;;;-141.84;51.13;21718.63;5031360;28;20570;-68
2023/05/22 06:30:53;;;;;;;10.07;7.78;;;21.20;99.90;;;-141.84;50.76;21767.44;5032128;28;20204;-69
2023/05/22 06:33:22;;;;;;;8.52;7.68;;;21.40;99.90;;;-141.84;50.81;21720.66;5031861;28;20764;-69
2023/05/22 06:35:51;;;;;;;8.40;7.70;;;21.50;99.90;;;-141.84;50.77;21736.94;5032014;28;20205;-68
2023/05/22 06:38:19;;;;;;;9.05;7.75;;;21.50;99.90;;;-141.84;50.35;21789.78;5025334;28;20227;-69
2023/05/22 06:40:48;;;;;;;9.15;7.57;;;21.60;99.90;;;-141.84;50.52;21777.59;5011914;28;20207;-69
2023/05/22 06:43:16;;;;;;;8.38;7.45;;;21.70;99.90;;;-141.84;50.07;21826.41;5019623;28;20264;-69
2023/05/22 06:45:44;;;;;;;9.10;7.70;;;21.80;99.90;;;-141.84;49.91;21818.25;5032240;28;20206;-69
2023/05/22 06:48:13;;;;;;;8.65;7.78;;;21.90;99.90;;;-141.84;49.74;21848.75;5031468;28;20226;-56
2023/05/22 06:50:41;;;;;;;9.25;6.82;;;21.90;99.90;;;-141.84;49.96;21850.78;5032110;28;20680;-58
2023/05/22 06:53:11;;;;;;;10.15;7.70;;;22.00;99.90;;;-141.84;50.08;21865.03;5031997;28;20206;-59
2023/05/22 06:55:39;;;;;;;8.43;7.55;;;22.00;99.90;;;-141.84;49.83;21863.00;5031834;28;20286;-56
2023/05/22 06:58:07;;;;;;;9.85;7.22;;;22.10;99.90;;;-141.84;49.52;21921.97;5031286;28;20224;-58
2023/05/22 07:00:35;;;;;;;8.02;7.22;;;22.20;99.90;;;-141.84;49.48;21903.66;5031067;28;20209;-56
2023/05/22 07:03:05;;;;;;;7.97;7.18;;;22.20;99.90;;;-141.84;49.96;21907.72;5031777;28;20232;-58
2023/05/22 07:05:33;;;;;;;9.00;7.53;;;22.30;99.90;;;-141.84;49.54;21954.50;5031723;28;20292;-58
2023/05/22 07:08:01;;;;;;;7.80;7.00;;;22.40;99.90;;;-141.84;49.75;21978.91;5031435;28;20330;-58
2023/05/22 07:10:31;;;;;;;9.23;7.70;;;22.60;99.90;;;-141.84;48.99;21980.94;5031607;28;20209;-56
2023/05/22 07:12:59;;;;;;;7.97;7.07;;;22.60;99.90;;;-141.84;49.42;21954.50;5031478;28;20201;-58
2023/05/22 07:15:27;;;;;;;8.23;7.22;;;22.60;99.90;;;-141.84;49.18;21997.19;5031277;28;20745;-59
2023/05/22 07:17:55;;;;;;;8.82;7.20;;;22.70;99.90;;;-141.84;49.12;22013.47;5031181;28;20553;-58
2023/05/22 07:20:25;;;;;;;10.23;7.60;;;22.70;99.90;;;-141.84;48.96;22058.22;5031336;28;20237;-57
2023/05/22 07:22:53;;;;;;;8.10;7.32;;;22.80;99.90;;;-141.84;48.71;22050.06;5031574;28;20206;-57
2023/05/22 07:25:21;;;;;;;8.45;7.18;;;22.90;99.90;;;-141.84;48.59;22084.66;5031270;28;20264;-59
2023/05/22 07:27:50;;;;;;;8.43;7.60;;;23.00;99.90;;;-141.84;48.69;22084.66;5031132;28;20313;-58
2023/05/22 07:30:18;;;;;;;8.82;7.60;;;23.00;99.90;;;-141.84;48.99;22009.41;5030967;28;20194;-57
2023/05/22 07:32:48;;;;;;;8.07;7.40;;;22.80;99.90;;;-141.84;48.96;22011.44;5030887;28;20230;-58
2023/05/22 07:35:16;;;;;;;7.68;6.97;;;22.80;99.90;;;-141.84;49.35;21987.03;5031141;28;20213;-58
2023/05/22 07:37:44;;;;;;;8.38;7.60;;;22.70;99.90;;;-141.84;49.17;21997.19;5031038;28;20636;-59
2023/05/22 07:40:13;;;;;;;8.10;7.40;;;22.70;99.90;;;-141.84;49.45;21954.50;5031106;28;20206;-55
2023/05/22 07:42:41;;;;;;;9.20;7.38;;;22.60;99.90;;;-141.84;50.00;21905.69;5030682;28;20194;-58
2023/05/22 07:45:11;;;;;;;8.27;7.45;;;22.50;99.90;;;-141.84;50.23;21891.47;5031065;28;20206;-59
2023/05/22 07:47:39;;;;;;;8.07;7.28;;;22.30;99.90;;;-141.84;50.40;21883.31;5031047;28;20226;-57
2023/05/22 07:50:09;;;;;;;7.88;7.10;;;22.30;99.90;;;-141.84;50.44;21928.06;5031131;28;20202;-57
2023/05/22 07:52:37;;;;;;;10.43;7.55;;;22.40;99.90;;;-141.84;50.27;21913.84;5029967;28;20659;-58
2023/05/22 07:55:07;;;;;;;7.70;6.95;;;22.40;99.90;;;-141.84;50.63;21950.44;5031120;28;20210;-58
2023/05/22 07:57:35;;;;;;;7.82;7.05;;;22.40;99.90;;;-141.84;49.75;21972.81;5030924;28;20206;-58
2023/05/22 08:00:12;;;;;;;8.13;7.03;;;22.60;99.90;;;-141.84;49.37;22015.50;5030975;28;20623;-58
2023/05/22 08:02:42;;;;;;;7.18;6.57;;;22.70;99.90;;;-141.84;49.45;22054.13;5030477;28;20282;-57
2023/05/22 08:05:11;;;;;;;7.30;6.55;;;22.90;99.90;;;-141.84;48.78;22068.38;5030706;28;20202;-58
2023/05/22 08:07:39;;;;;;;7.72;6.93;;;23.00;99.90;;;-141.84;48.37;22170.06;5030615;28;20730;-56
2023/05/22 08:10:15;;;;;;;7.22;6.53;;;23.20;99.90;;;-141.84;47.75;22214.78;5030494;28;20306;-57
2023/05/22 08:12:43;;;;;;;7.80;6.47;;;23.30;99.90;;;-141.84;47.57;22229.03;5030483;28;20190;-56
2023/05/22 08:15:12;;;;;;;6.97;6.38;;;23.50;99.90;;;-141.84;47.39;22251.41;5030244;28;20209;-57
2023/05/22 08:17:41;;;;;;;8.00;6.90;;;23.60;99.90;;;-141.84;47.32;22192.44;5030744;28;20286;-57
2023/05/22 08:20:11;;;;;;;8.95;6.78;;;23.50;99.90;;;-141.84;47.81;22133.44;5030497;28;20202;-58
2023/05/22 08:22:40;;;;;;;6.85;6.22;;;23.40;99.90;;;-141.84;47.93;22107.00;5030329;28;20198;-58
2023/05/22 08:25:09;;;;;;;7.78;7.05;;;23.30;99.90;;;-141.84;48.53;22125.31;5030464;28;20252;-58
2023/05/22 08:31:43;;;;;;;9.07;6.72;;;23.20;99.90;;;-141.84;47.83;22072.44;5026612;28;20209;-56
2023/05/22 08:34:13;;;;;;;6.60;6.00;;;23.20;99.90;;;-141.84;47.69;22090.75;5014217;28;20221;-58
2023/05/22 08:36:41;;;;;;;7.38;6.68;;;23.10;99.90;;;-141.84;47.82;22102.94;5030721;28;20293;-57
2023/05/22 08:39:11;;;;;;;7.15;6.30;;;23.20;99.90;;;-141.84;47.17;22147.69;5031064;28;20709;-70
2023/05/22 08:41:39;;;;;;;7.35;6.35;;;23.30;99.90;;;-141.84;46.83;22184.28;5030951;28;20205;-69
2023/05/22 08:44:07;;;;;;;6.88;6.07;;;23.50;99.90;;;-141.84;46.33;22261.56;5030895;28;20205;-69
2023/05/22 08:46:36;;;;;;;8.63;6.18;;;23.60;99.90;;;-141.84;46.06;22257.50;5030812;28;20730;-68
2023/05/22 08:49:05;;;;;;;8.57;6.28;;;23.70;99.90;;;-141.84;46.02;22316.47;5030639;28;20730;-71
2023/05/22 08:51:41;;;;;;;7.53;6.50;;;23.80;99.90;;;-141.84;46.10;22318.50;5031037;28;20230;-69
2023/05/22 08:54:09;;;;;;;6.72;6.15;;;23.90;99.90;;;-141.84;46.21;22371.38;5031102;28;20190;-68
2023/05/22 08:56:39;;;;;;;8.98;6.28;;;24.00;99.90;;;-141.84;46.32;22355.13;5030733;28;20241;-69
2023/05/22 08:59:23;;;;;;;7.20;6.60;;;24.20;99.90;;;-141.84;46.14;22369.34;5018186;28;20197;-69
2023/05/22 09:01:52;;;;;;;10.05;6.85;;;24.20;99.90;;;-141.84;45.83;22338.84;5030712;28;20210;-69
2023/05/22 09:04:22;;;;;;;7.05;5.78;;;24.20;99.90;;;-141.84;45.79;22306.31;5033413;28;20226;-70
2023/05/22 09:06:53;;;;;;;7.32;6.10;;;24.20;99.90;;;-141.84;45.67;22377.47;5034773;28;20265;-68
2023/05/22 09:09:22;;;;;;;7.63;6.05;;;24.20;99.90;;;-141.84;44.31;22371.38;5034871;28;20217;-69
2023/05/22 09:11:50;;;;;;;9.65;5.80;;;24.30;99.90;;;-141.84;44.25;22448.66;5034048;28;20230;-70
2023/05/22 09:14:19;;;;;;;6.25;5.70;;;24.40;99.90;;;-141.84;43.99;22538.16;5034332;28;20206;-70
2023/05/22 09:16:49;;;;;;;6.25;5.55;;;24.60;99.90;;;-141.84;43.28;22611.38;5034217;28;20234;-69
2023/05/22 09:19:18;;;;;;;6.53;5.78;;;24.80;99.90;;;-141.84;42.65;22536.13;5034257;28;20285;-70
2023/05/22 09:21:47;;;;;;;7.72;5.70;;;24.90;99.90;;;-141.84;42.65;22605.25;5033861;28;20217;-69
2023/05/22 09:24:16;;;;;;;6.13;5.53;;;24.90;99.90;;;-141.84;42.66;22593.06;5033811;28;20206;-69
2023/05/22 09:26:45;;;;;;;5.90;5.32;;;25.00;99.90;;;-141.84;40.39;22682.56;5033444;28;20308;-68
2023/05/22 09:29:13;;;;;;;5.57;4.93;;;25.20;99.90;;;-141.84;39.87;22709.00;5034140;28;20310;-69
2023/05/22 09:31:43;;;;;;;5.43;4.88;;;25.20;99.90;;;-141.84;39.61;22735.44;5033952;28;20206;-59
2023/05/22 09:34:14;;;;;;;5.93;4.95;;;25.30;99.90;;;-141.84;39.79;22709.00;5034185;28;20186;-57
2023/05/22 09:36:43;;;;;;;5.72;5.13;;;25.40;99.90;;;-141.84;39.79;22745.59;5033648;28;20638;-56
2023/05/22 09:39:12;;;;;;;5.68;4.88;;;25.40;99.90;;;-141.84;39.34;22755.78;5034045;28;20194;-58
2023/05/22 09:41:44;;;;;;;7.45;5.40;;;25.50;99.90;;;-141.84;39.39;22731.38;5033987;28;20741;-58
2023/05/22 09:44:13;;;;;;;5.82;5.22;;;25.40;99.90;;;-141.84;39.57;22729.34;5033666;28;20198;-58
2023/05/22 09:46:43;;;;;;;5.10;4.65;;;25.40;99.90;;;-141.84;39.95;22676.44;5033724;28;20662;-57
2023/05/22 09:49:12;;;;;;;6.43;5.25;;;25.40;99.90;;;-141.84;39.42;22747.63;5034154;28;20213;-55
2023/05/22 09:51:47;;;;;;;5.90;5.20;;;25.40;99.90;;;-141.84;39.35;22755.78;5034009;28;20208;-58
2023/05/22 09:54:20;;;;;;;8.35;5.25;;;25.40;99.90;;;-141.84;39.56;22743.56;5034033;28;20675;-57
2023/05/22 09:56:55;;;;;;;5.90;5.40;;;25.40;99.90;;;-141.84;39.97;22704.94;5033848;28;20198;-57
2023/05/22 09:59:30;;;;;;;7.45;5.90;;;25.30;99.90;;;-141.84;40.16;22704.94;5014188;28;20218;-57
2023/05/22 10:02:00;;;;;;;5.60;5.10;;;25.30;99.90;;;-141.84;39.66;22664.25;5013920;28;20230;-59
2023/05/22 10:04:34;;;;;;;8.95;5.63;;;25.30;99.90;;;-141.84;39.76;22709.00;5014596;28;20187;-57
2023/05/22 10:07:03;;;;;;;6.03;5.43;;;25.30;99.90;;;-141.84;39.86;22729.34;5033459;28;20545;-58
2023/05/22 10:09:35;;;;;;;6.47;5.88;;;25.40;99.90;;;-141.84;39.67;22765.94;5033704;28;20317;-59
2023/05/22 10:12:09;;;;;;;6.35;5.25;;;25.50;99.90;;;-141.84;39.69;22761.88;5033668;28;20201;-59
2023/05/22 10:14:37;;;;;;;5.93;5.35;;;25.50;99.90;;;-141.84;39.11;22800.50;5032386;28;20260;-59
2023/05/22 10:17:06;;;;;;;5.80;5.30;;;25.60;99.90;;;-141.84;38.86;22853.41;5033398;28;20202;-59
2023/05/22 10:19:37;;;;;;;5.47;4.97;;;25.70;99.90;;;-141.84;38.61;22894.06;5033340;28;20230;-58